createdAt,value
2023-03-29T00:02:33.971Z,98954.10
2023-03-29T00:07:39.384Z,98952.21
2023-03-29T00:12:44.266Z,98952.19
2023-03-29T00:17:49.935Z,98954.45
2023-03-29T00:22:55.125Z,98951.20
2023-03-29T00:28:00.039Z,98949.61
2023-03-29T00:33:05.192Z,98951.48
2023-03-29T00:38:09.945Z,98951.93
2023-03-29T00:43:15.595Z,98954.05
2023-03-29T00:48:21.673Z,98945.88
2023-03-29T00:53:28.026Z,98946.34
2023-03-29T00:58:36.216Z,98944.08
2023-03-29T01:03:46.064Z,98945.79
2023-03-29T01:08:52.027Z,98945.14
2023-03-29T01:13:58.970Z,98936.04
2023-03-29T01:19:05.092Z,98935.48
2023-03-29T01:24:33.560Z,98924.75
2023-03-29T01:29:43.427Z,98924.20
2023-03-29T01:34:52.287Z,98920.97
2023-03-29T01:39:57.425Z,98915.08
2023-03-29T01:45:07.907Z,98911.92
2023-03-29T01:50:15.238Z,98910.84
2023-03-29T01:55:22.798Z,98903.76
2023-03-29T02:00:29.187Z,98901.62
2023-03-29T02:05:35.438Z,98905.05
2023-03-29T02:10:40.449Z,98905.19
2023-03-29T02:15:46.278Z,98909.63
2023-03-29T02:20:51.821Z,98903.42
2023-03-29T02:25:57.315Z,98907.00
2023-03-29T02:31:06.088Z,98913.63
2023-03-29T02:36:14.250Z,98904.54
2023-03-29T02:41:19.498Z,98908.58
2023-03-29T02:46:24.619Z,98910.91
2023-03-29T02:51:30.496Z,98913.46
2023-03-29T02:56:43.463Z,98917.98
2023-03-29T03:01:48.482Z,98921.46
2023-03-29T03:06:53.883Z,98910.98
2023-03-29T03:11:58.876Z,98913.31
2023-03-29T03:17:04.858Z,98915.39
2023-03-29T03:22:10.191Z,98916.39
2023-03-29T03:27:15.399Z,98915.52
2023-03-29T03:32:20.561Z,98918.08
2023-03-29T03:37:25.408Z,98919.25
2023-03-29T03:42:30.664Z,98913.66
2023-03-29T03:47:36.946Z,98908.25
2023-03-29T03:52:41.866Z,98912.20
2023-03-29T03:57:47.634Z,98910.80
2023-03-29T04:02:53.926Z,98908.05
2023-03-29T04:07:58.264Z,98904.45
2023-03-29T04:13:04.212Z,98903.08
2023-03-29T04:18:08.909Z,98908.37
2023-03-29T04:23:13.926Z,98911.36
2023-03-29T04:28:18.278Z,98907.13
2023-03-29T04:33:23.066Z,98904.61
2023-03-29T04:38:27.389Z,98900.73
2023-03-29T04:43:32.127Z,98908.21
2023-03-29T04:48:37.288Z,98912.66
2023-03-29T04:53:42.021Z,98909.52
2023-03-29T04:58:46.661Z,98907.55
2023-03-29T05:03:52.221Z,98912.31
2023-03-29T05:08:57.269Z,98905.11
2023-03-29T05:14:03.137Z,98907.29
2023-03-29T05:19:08.861Z,98900.97
2023-03-29T05:24:14.079Z,98902.59
2023-03-29T05:29:19.140Z,98899.47
2023-03-29T05:34:23.988Z,98901.05
2023-03-29T05:39:28.767Z,98904.95
2023-03-29T05:44:33.986Z,98903.98
2023-03-29T05:49:38.945Z,98909.29
2023-03-29T05:54:43.348Z,98908.41
2023-03-29T05:59:48.118Z,98903.55
2023-03-29T06:04:53.671Z,98904.91
2023-03-29T06:09:58.651Z,98903.02
2023-03-29T06:15:04.747Z,98911.52
2023-03-29T06:20:10.916Z,98912.45
2023-03-29T06:25:17.287Z,98915.77
2023-03-29T06:30:22.238Z,98916.12
2023-03-29T06:35:27.760Z,98920.20
2023-03-29T06:40:33.156Z,98928.06
2023-03-29T06:45:38.391Z,98926.59
2023-03-29T06:50:43.513Z,98923.73
2023-03-29T06:55:48.528Z,98924.38
2023-03-29T07:00:53.523Z,98922.52
2023-03-29T07:06:04.048Z,98924.57
2023-03-29T07:11:09.997Z,98919.96
2023-03-29T07:16:14.844Z,98921.11
2023-03-29T07:21:20.025Z,98924.15
2023-03-29T07:26:28.545Z,98923.11
2023-03-29T07:31:36.017Z,98918.52
2023-03-29T07:36:43.600Z,98920.69
2023-03-29T07:41:48.780Z,98912.50
2023-03-29T07:46:53.940Z,98910.48
2023-03-29T07:51:58.892Z,98914.50
2023-03-29T07:57:04.190Z,98920.52
2023-03-29T08:02:10.144Z,98916.90
2023-03-29T08:07:17.650Z,98918.95
2023-03-29T08:12:25.104Z,98913.97
2023-03-29T08:17:30.072Z,98906.85
2023-03-29T08:22:34.891Z,98907.58
2023-03-29T08:27:39.563Z,98901.40
2023-03-29T08:37:49.399Z,98898.41
2023-03-29T08:43:03.231Z,98892.89
2023-03-29T08:48:13.459Z,98889.58
2023-03-29T08:53:19.767Z,98889.77
2023-03-29T08:58:26.313Z,98885.53
2023-03-29T09:03:32.606Z,98883.39
2023-03-29T09:08:39.618Z,98876.50
2023-03-29T09:13:49.635Z,98868.90
2023-03-29T09:19:01.185Z,98862.71
2023-03-29T09:24:12.770Z,98863.95
2023-03-29T09:29:34.096Z,98855.04
2023-03-29T09:34:43.826Z,98854.23
2023-03-29T09:39:49.232Z,98849.88
2023-03-29T09:44:57.229Z,98846.98
2023-03-29T09:50:03.304Z,98843.11
2023-03-29T09:55:13.897Z,98846.16
2023-03-29T10:00:20.334Z,98838.41
2023-03-29T10:05:26.342Z,98829.86
2023-03-29T10:10:31.732Z,98831.52
2023-03-29T10:15:36.799Z,98830.80
2023-03-29T10:20:41.936Z,98823.52
2023-03-29T10:25:46.766Z,98821.80
2023-03-29T10:30:55.111Z,98817.39
2023-03-29T10:36:01.015Z,98823.18
2023-03-29T10:41:08.376Z,98822.30
2023-03-29T10:46:19.542Z,98818.44
2023-03-29T10:51:25.218Z,98811.00
2023-03-29T10:56:38.737Z,98803.05
2023-03-29T11:01:45.900Z,98794.45
2023-03-29T11:06:57.482Z,98787.23
2023-03-29T11:12:14.944Z,98777.52
2023-03-29T11:17:26.344Z,98774.54
2023-03-29T11:22:37.099Z,98760.49
2023-03-29T11:27:47.269Z,98755.55
2023-03-29T11:32:57.075Z,98754.74
2023-03-29T11:38:06.794Z,98748.71
2023-03-29T11:43:13.644Z,98738.07
2023-03-29T11:48:22.037Z,98729.36
2023-03-29T11:53:30.165Z,98724.19
2023-03-29T11:58:39.083Z,98715.02
2023-03-29T12:03:47.332Z,98706.64
2023-03-29T12:08:55.362Z,98702.55
2023-03-29T12:14:03.217Z,98692.34
2023-03-29T12:19:13.113Z,98695.33
2023-03-29T12:24:18.972Z,98689.91
2023-03-29T12:29:33.903Z,98694.13
2023-03-29T12:34:48.246Z,98693.42
2023-03-29T12:39:53.326Z,98691.55
2023-03-29T12:45:00.060Z,98682.61
2023-03-29T12:50:05.200Z,98676.02
2023-03-29T12:55:23.442Z,98670.31
2023-03-29T13:00:33.356Z,98664.45
2023-03-29T13:05:38.297Z,98663.42
2023-03-29T13:10:43.540Z,98657.40
2023-03-29T13:15:48.323Z,98651.61
2023-03-29T13:21:00.019Z,98647.07
2023-03-29T13:26:13.758Z,98648.17
2023-03-29T13:31:26.820Z,98632.75
2023-03-29T13:36:38.868Z,98628.61
2023-03-29T13:41:48.822Z,98627.29
2023-03-29T13:47:03.306Z,98618.27
2023-03-29T13:52:15.893Z,98607.41
2023-03-29T13:57:22.397Z,98599.98
2023-03-29T14:02:32.261Z,98606.45
2023-03-29T14:07:38.741Z,98600.13
2023-03-29T14:12:44.046Z,98596.59
2023-03-29T14:17:49.189Z,98598.09
2023-03-29T14:22:54.179Z,98598.48
2023-03-29T14:27:58.990Z,98586.97
2023-03-29T14:33:04.831Z,98579.61
2023-03-29T14:38:12.407Z,98578.83
2023-03-29T14:43:18.474Z,98578.11
2023-03-29T14:48:23.851Z,98576.39
2023-03-29T14:53:30.381Z,98575.14
2023-03-29T14:58:38.087Z,98571.63
2023-03-29T15:03:51.707Z,98564.58
2023-03-29T15:09:05.405Z,98558.40
2023-03-29T15:14:16.615Z,98556.45
2023-03-29T15:19:22.193Z,98550.73
2023-03-29T15:24:30.420Z,98548.61
2023-03-29T15:29:36.738Z,98545.25
2023-03-29T15:34:41.886Z,98535.92
2023-03-29T15:39:46.758Z,98535.16
2023-03-29T15:44:53.845Z,98533.87
2023-03-29T15:49:58.620Z,98532.63
2023-03-29T15:55:03.457Z,98529.95
2023-03-29T16:00:14.140Z,98524.98
2023-03-29T16:05:19.277Z,98526.39
2023-03-29T16:10:24.167Z,98521.46
2023-03-29T16:15:28.979Z,98520.69
2023-03-29T16:20:33.612Z,98516.63
2023-03-29T16:25:39.525Z,98510.67
2023-03-29T16:30:44.724Z,98503.52
2023-03-29T16:35:49.403Z,98500.16
2023-03-29T16:40:54.689Z,98503.77
2023-03-29T16:46:00.096Z,98507.63
2023-03-29T16:51:05.433Z,98510.05
2023-03-29T16:56:10.513Z,98509.51
2023-03-29T17:01:15.851Z,98516.02
2023-03-29T17:06:20.893Z,98515.56
2023-03-29T17:11:26.500Z,98514.07
2023-03-29T17:16:31.933Z,98516.20
2023-03-29T17:21:37.142Z,98516.91
2023-03-29T17:26:43.846Z,98519.27
2023-03-29T17:31:49.930Z,98521.54
2023-03-29T17:36:55.052Z,98527.89
2023-03-29T17:42:00.041Z,98533.61
2023-03-29T17:47:05.244Z,98541.59
2023-03-29T17:52:10.388Z,98539.41
2023-03-29T17:57:16.271Z,98534.55
2023-03-29T18:02:22.204Z,98532.37
2023-03-29T18:07:28.062Z,98531.04
2023-03-29T18:12:32.760Z,98530.72
2023-03-29T18:17:38.347Z,98539.80
2023-03-29T18:22:45.207Z,98551.86
2023-03-29T18:27:50.638Z,98555.61
2023-03-29T18:32:55.545Z,98551.30
2023-03-29T18:38:01.060Z,98548.88
2023-03-29T18:43:06.335Z,98541.13
2023-03-29T18:48:11.207Z,98534.72
2023-03-29T18:53:16.314Z,98535.34
2023-03-29T18:58:23.819Z,98535.95
2023-03-29T19:03:28.508Z,98535.56
2023-03-29T19:08:33.992Z,98533.22
2023-03-29T19:13:38.796Z,98526.80
2023-03-29T19:18:43.865Z,98536.02
2023-03-29T19:23:52.485Z,98543.70
2023-03-29T19:28:57.463Z,98546.98
2023-03-29T19:34:02.948Z,98547.37
2023-03-29T19:39:07.960Z,98539.23
2023-03-29T19:44:13.486Z,98536.49
2023-03-29T19:49:18.597Z,98541.02
2023-03-29T19:54:23.286Z,98539.31
2023-03-29T19:59:28.505Z,98535.33
2023-03-29T20:04:33.706Z,98532.89
2023-03-29T20:09:38.583Z,98527.73
2023-03-29T20:14:43.458Z,98524.52
2023-03-29T20:19:48.387Z,98522.64
2023-03-29T20:24:53.086Z,98523.90
2023-03-29T20:29:57.988Z,98514.73
2023-03-29T20:35:02.956Z,98515.42
2023-03-29T20:40:08.816Z,98512.77
2023-03-29T20:45:18.973Z,98504.55
2023-03-29T20:50:26.345Z,98506.59
2023-03-29T20:55:32.896Z,98498.45
2023-03-29T21:00:38.065Z,98505.80
2023-03-29T21:05:43.084Z,98504.70
2023-03-29T21:10:48.260Z,98506.50
2023-03-29T21:15:53.402Z,98495.16
2023-03-29T21:20:58.056Z,98485.77
2023-03-29T21:26:02.749Z,98477.71
2023-03-29T21:31:07.883Z,98478.65
2023-03-29T21:36:12.692Z,98479.58
2023-03-29T21:41:17.532Z,98479.65
2023-03-29T21:46:22.508Z,98477.06
2023-03-29T21:51:27.293Z,98474.56
2023-03-29T21:56:32.082Z,98471.12
2023-03-29T22:01:36.558Z,98465.17
2023-03-29T22:06:41.532Z,98461.89
2023-03-29T22:11:46.411Z,98455.94
2023-03-29T22:16:51.532Z,98450.69
2023-03-29T22:22:01.133Z,98445.06
2023-03-29T22:27:06.383Z,98443.42
2023-03-29T22:32:11.528Z,98440.77
2023-03-29T22:37:17.912Z,98441.71
2023-03-29T22:42:23.413Z,98434.50
2023-03-29T22:47:28.011Z,98432.39
2023-03-29T22:52:32.753Z,98438.71
2023-03-29T22:57:37.782Z,98434.10
2023-03-29T23:02:43.078Z,98425.80
2023-03-29T23:07:47.699Z,98419.92
2023-03-29T23:12:53.418Z,98423.52
2023-03-29T23:17:58.348Z,98420.17
2023-03-29T23:23:03.805Z,98416.96
2023-03-29T23:28:08.441Z,98415.55
2023-03-29T23:33:14.155Z,98413.67
2023-03-29T23:38:19.316Z,98411.09
2023-03-29T23:43:24.569Z,98407.33
2023-03-29T23:48:29.243Z,98406.99
2023-03-29T23:53:33.966Z,98403.95
2023-03-29T23:58:39.179Z,98400.52
